Airfield :
LOGIN :

Register | Disclaimer

   EN    FR    IT 

 










Legend :    VFR   Marginal VFR   IFR   Intensive IFR   Very Intensive IFR
Visi :
Ceiling :
>= 8 km
>= 3000ft
5 to 8 km
1000 to 3000 ft
1500m to 5 km
500 to 1000 ft
800 to 1500m
200 to 500 ft
< 800m
< 200 ft
Symbols :   Thunderstorms  Fog  Heavy snow  Heavy precipitations  Wind > 20 kt
SIGMETs :     Misc.  Thunderstorms  Icing  Turbulence  Mountain Waves  Volcanic Ashes






- Airport Elevation : 15 ft
- IATA code : GIB


LXGB - Gibraltar

CURRENT METAR :
  • 230150Z AUTO 10014KT 9999 OVC013/// 23/21 Q1018

EXPIRED METARs :
  • 230120Z AUTO 09014KT 9999 OVC012/// 23/21 Q1018
  • 230050Z AUTO 09014KT 9999 OVC015/// 23/21 Q1018
  • 230020Z AUTO 09012KT 9999 OVC010/// 22/21 Q1018
  • 222320Z AUTO 08009KT 9999 OVC010/// 21/20 Q1018
  • 222250Z AUTO 06008KT 9999 OVC013/// 20/19 Q1019
  • 222220Z AUTO 07010KT 9999 OVC011/// 21/19 Q1018
  • 222150Z AUTO 08010KT 9999 OVC011/// 21/19 Q1018
  • 222120Z AUTO 08010KT //// FEW002/// OVC010/// 22/20 Q1018

TAF TAF LXGB
Valid from the 22 at 18:00 until the 23 at 03:00 UTC


221607Z 2218/2303 09013KT 9999 FEW006 BKN010
PROB40
TEMPO 2218/2222 FEW012
PROB30
TEMPO 2218/2222 0500 BCFG SCT000



MET'MAP, your aeronautical weather chart ! - Copyright ORBIFLY December 2007 - Disclaimer

ORBIFLY MET'MAP TEAM :

Programming & Development : Alexandra Zaïnal
Original concept : Baudouin d'Aumeries
Technical & hardware support : Manuel Goepfert
Assistance : Marc-Olivier Méhu




SOURCES & CREDITS :

   NOAA